sensor_id;sensor_type;location;lat;lon;timestamp;P1;durP1;ratioP1;P2;durP2;ratioP2
65489;SDS011;52107;49.742;8.628;2022-07-09T00:00:18;2.10;;;1.30;;
65489;SDS011;52107;49.742;8.628;2022-07-09T00:02:43;2.60;;;1.17;;
65489;SDS011;52107;49.742;8.628;2022-07-09T00:05:08;2.28;;;1.33;;
65489;SDS011;52107;49.742;8.628;2022-07-09T00:07:33;2.73;;;1.40;;
65489;SDS011;52107;49.742;8.628;2022-07-09T00:09:59;2.00;;;1.33;;
65489;SDS011;52107;49.742;8.628;2022-07-09T00:12:24;3.40;;;1.10;;
65489;SDS011;52107;49.742;8.628;2022-07-09T00:14:49;2.65;;;1.30;;
65489;SDS011;52107;49.742;8.628;2022-07-09T00:17:15;2.00;;;1.20;;
65489;SDS011;52107;49.742;8.628;2022-07-09T00:19:40;2.30;;;1.17;;
65489;SDS011;52107;49.742;8.628;2022-07-09T00:22:06;2.10;;;1.20;;
65489;SDS011;52107;49.742;8.628;2022-07-09T00:24:31;1.88;;;1.20;;
65489;SDS011;52107;49.742;8.628;2022-07-09T00:26:56;3.37;;;1.13;;
65489;SDS011;52107;49.742;8.628;2022-07-09T00:29:22;2.10;;;1.20;;
65489;SDS011;52107;49.742;8.628;2022-07-09T00:31:47;3.33;;;1.37;;
65489;SDS011;52107;49.742;8.628;2022-07-09T00:34:12;2.13;;;1.30;;
65489;SDS011;52107;49.742;8.628;2022-07-09T00:36:37;3.60;;;1.30;;
65489;SDS011;52107;49.742;8.628;2022-07-09T00:39:03;2.10;;;1.20;;
65489;SDS011;52107;49.742;8.628;2022-07-09T00:41:28;2.47;;;1.07;;
65489;SDS011;52107;49.742;8.628;2022-07-09T00:43:53;2.30;;;1.10;;
65489;SDS011;52107;49.742;8.628;2022-07-09T00:46:18;2.20;;;1.40;;
65489;SDS011;52107;49.742;8.628;2022-07-09T00:48:43;2.10;;;1.13;;
65489;SDS011;52107;49.742;8.628;2022-07-09T00:51:09;3.60;;;1.33;;
65489;SDS011;52107;49.742;8.628;2022-07-09T00:53:36;2.38;;;1.63;;
65489;SDS011;52107;49.742;8.628;2022-07-09T00:56:01;2.93;;;1.20;;
65489;SDS011;52107;49.742;8.628;2022-07-09T00:58:27;2.20;;;1.27;;
65489;SDS011;52107;49.742;8.628;2022-07-09T01:00:53;4.63;;;1.00;;
65489;SDS011;52107;49.742;8.628;2022-07-09T01:03:19;2.60;;;1.30;;
65489;SDS011;52107;49.742;8.628;2022-07-09T01:05:44;3.13;;;1.30;;
65489;SDS011;52107;49.742;8.628;2022-07-09T01:08:09;2.15;;;1.08;;
65489;SDS011;52107;49.742;8.628;2022-07-09T01:10:35;2.13;;;1.25;;
65489;SDS011;52107;49.742;8.628;2022-07-09T01:13:01;3.67;;;1.23;;
65489;SDS011;52107;49.742;8.628;2022-07-09T01:15:27;3.65;;;1.50;;
65489;SDS011;52107;49.742;8.628;2022-07-09T01:17:53;2.08;;;1.13;;
65489;SDS011;52107;49.742;8.628;2022-07-09T01:20:23;2.47;;;1.27;;
65489;SDS011;52107;49.742;8.628;2022-07-09T01:22:48;2.33;;;1.10;;
65489;SDS011;52107;49.742;8.628;2022-07-09T01:25:14;1.80;;;1.00;;
65489;SDS011;52107;49.742;8.628;2022-07-09T01:27:41;2.83;;;1.50;;
65489;SDS011;52107;49.742;8.628;2022-07-09T01:30:06;2.37;;;0.97;;
65489;SDS011;52107;49.742;8.628;2022-07-09T01:32:31;2.45;;;1.00;;
65489;SDS011;52107;49.742;8.628;2022-07-09T01:34:56;8.90;;;1.23;;
65489;SDS011;52107;49.742;8.628;2022-07-09T01:37:21;2.87;;;1.50;;
65489;SDS011;52107;49.742;8.628;2022-07-09T01:39:47;2.30;;;1.37;;
65489;SDS011;52107;49.742;8.628;2022-07-09T01:42:16;2.10;;;1.27;;
65489;SDS011;52107;49.742;8.628;2022-07-09T01:44:41;3.03;;;1.50;;
65489;SDS011;52107;49.742;8.628;2022-07-09T01:47:06;2.10;;;1.10;;
65489;SDS011;52107;49.742;8.628;2022-07-09T01:49:31;2.50;;;1.30;;
65489;SDS011;52107;49.742;8.628;2022-07-09T01:51:57;2.83;;;1.25;;
65489;SDS011;52107;49.742;8.628;2022-07-09T01:54:23;2.50;;;0.93;;
65489;SDS011;52107;49.742;8.628;2022-07-09T01:56:48;3.00;;;1.42;;
65489;SDS011;52107;49.742;8.628;2022-07-09T01:59:13;2.00;;;1.10;;
65489;SDS011;52107;49.742;8.628;2022-07-09T02:01:38;2.78;;;1.00;;
65489;SDS011;52107;49.742;8.628;2022-07-09T02:04:03;1.98;;;1.00;;
65489;SDS011;52107;49.742;8.628;2022-07-09T02:06:28;2.92;;;1.17;;
65489;SDS011;52107;49.742;8.628;2022-07-09T02:08:54;1.95;;;1.20;;
65489;SDS011;52107;49.742;8.628;2022-07-09T02:11:19;2.90;;;1.37;;
65489;SDS011;52107;49.742;8.628;2022-07-09T02:13:44;2.35;;;1.20;;
65489;SDS011;52107;49.742;8.628;2022-07-09T02:16:09;2.90;;;1.10;;
65489;SDS011;52107;49.742;8.628;2022-07-09T02:18:34;2.57;;;1.17;;
65489;SDS011;52107;49.742;8.628;2022-07-09T02:21:00;2.73;;;1.33;;
65489;SDS011;52107;49.742;8.628;2022-07-09T02:23:25;2.20;;;1.35;;
65489;SDS011;52107;49.742;8.628;2022-07-09T02:25:50;2.80;;;1.10;;
65489;SDS011;52107;49.742;8.628;2022-07-09T02:28:19;2.60;;;1.23;;
65489;SDS011;52107;49.742;8.628;2022-07-09T02:30:45;2.17;;;1.35;;
65489;SDS011;52107;49.742;8.628;2022-07-09T02:33:10;3.30;;;1.30;;
65489;SDS011;52107;49.742;8.628;2022-07-09T02:35:35;3.00;;;1.37;;
65489;SDS011;52107;49.742;8.628;2022-07-09T02:38:00;2.25;;;1.27;;
65489;SDS011;52107;49.742;8.628;2022-07-09T02:40:26;2.30;;;1.30;;
65489;SDS011;52107;49.742;8.628;2022-07-09T02:42:51;2.03;;;1.27;;
65489;SDS011;52107;49.742;8.628;2022-07-09T02:45:16;3.63;;;1.63;;
65489;SDS011;52107;49.742;8.628;2022-07-09T02:47:41;2.67;;;1.70;;
65489;SDS011;52107;49.742;8.628;2022-07-09T02:50:06;2.20;;;1.30;;
65489;SDS011;52107;49.742;8.628;2022-07-09T02:52:32;2.30;;;1.30;;
65489;SDS011;52107;49.742;8.628;2022-07-09T02:54:57;3.00;;;1.20;;
65489;SDS011;52107;49.742;8.628;2022-07-09T02:57:22;2.00;;;1.30;;
65489;SDS011;52107;49.742;8.628;2022-07-09T02:59:47;2.87;;;1.13;;
65489;SDS011;52107;49.742;8.628;2022-07-09T03:02:13;3.40;;;1.30;;
65489;SDS011;52107;49.742;8.628;2022-07-09T03:04:38;2.30;;;1.25;;
65489;SDS011;52107;49.742;8.628;2022-07-09T03:07:03;2.00;;;1.30;;
65489;SDS011;52107;49.742;8.628;2022-07-09T03:09:28;2.17;;;1.10;;
65489;SDS011;52107;49.742;8.628;2022-07-09T03:11:53;2.40;;;1.30;;
65489;SDS011;52107;49.742;8.628;2022-07-09T03:14:19;2.27;;;1.33;;
65489;SDS011;52107;49.742;8.628;2022-07-09T03:16:44;2.55;;;1.10;;
65489;SDS011;52107;49.742;8.628;2022-07-09T03:19:09;3.30;;;1.50;;
65489;SDS011;52107;49.742;8.628;2022-07-09T03:21:34;2.55;;;1.17;;
65489;SDS011;52107;49.742;8.628;2022-07-09T03:23:59;2.20;;;0.90;;
65489;SDS011;52107;49.742;8.628;2022-07-09T03:26:25;2.17;;;1.13;;
65489;SDS011;52107;49.742;8.628;2022-07-09T03:28:50;3.93;;;1.40;;
65489;SDS011;52107;49.742;8.628;2022-07-09T03:31:16;2.40;;;1.10;;
65489;SDS011;52107;49.742;8.628;2022-07-09T03:33:41;2.95;;;1.20;;
65489;SDS011;52107;49.742;8.628;2022-07-09T03:36:06;2.60;;;1.02;;
65489;SDS011;52107;49.742;8.628;2022-07-09T03:38:32;2.47;;;1.30;;
65489;SDS011;52107;49.742;8.628;2022-07-09T03:40:58;2.25;;;1.02;;
65489;SDS011;52107;49.742;8.628;2022-07-09T03:43:23;1.90;;;1.20;;
65489;SDS011;52107;49.742;8.628;2022-07-09T03:45:48;2.13;;;1.23;;
65489;SDS011;52107;49.742;8.628;2022-07-09T03:48:13;2.13;;;1.25;;
65489;SDS011;52107;49.742;8.628;2022-07-09T03:50:39;2.00;;;1.10;;
65489;SDS011;52107;49.742;8.628;2022-07-09T03:53:04;2.07;;;1.13;;
65489;SDS011;52107;49.742;8.628;2022-07-09T03:55:29;1.97;;;1.10;;
65489;SDS011;52107;49.742;8.628;2022-07-09T03:57:54;3.20;;;1.30;;
65489;SDS011;52107;49.742;8.628;2022-07-09T04:00:19;2.30;;;1.00;;
65489;SDS011;52107;49.742;8.628;2022-07-09T04:02:45;2.63;;;1.47;;
65489;SDS011;52107;49.742;8.628;2022-07-09T04:05:11;2.70;;;1.10;;
65489;SDS011;52107;49.742;8.628;2022-07-09T04:07:36;2.37;;;1.33;;
65489;SDS011;52107;49.742;8.628;2022-07-09T04:10:01;3.03;;;1.20;;
65489;SDS011;52107;49.742;8.628;2022-07-09T04:12:26;2.73;;;1.20;;
65489;SDS011;52107;49.742;8.628;2022-07-09T04:14:52;2.10;;;0.87;;
65489;SDS011;52107;49.742;8.628;2022-07-09T04:17:17;2.57;;;1.10;;
65489;SDS011;52107;49.742;8.628;2022-07-09T04:19:42;2.53;;;1.27;;
65489;SDS011;52107;49.742;8.628;2022-07-09T04:22:07;2.83;;;1.23;;
65489;SDS011;52107;49.742;8.628;2022-07-09T04:24:32;2.37;;;1.10;;
65489;SDS011;52107;49.742;8.628;2022-07-09T04:26:58;2.60;;;1.30;;
65489;SDS011;52107;49.742;8.628;2022-07-09T04:29:23;2.08;;;1.15;;
65489;SDS011;52107;49.742;8.628;2022-07-09T04:31:48;1.90;;;1.20;;
65489;SDS011;52107;49.742;8.628;2022-07-09T04:34:13;2.42;;;1.30;;
65489;SDS011;52107;49.742;8.628;2022-07-09T04:36:38;5.40;;;1.35;;
65489;SDS011;52107;49.742;8.628;2022-07-09T04:39:04;2.50;;;1.23;;
65489;SDS011;52107;49.742;8.628;2022-07-09T04:41:29;2.87;;;1.40;;
65489;SDS011;52107;49.742;8.628;2022-07-09T04:43:54;2.27;;;1.40;;
65489;SDS011;52107;49.742;8.628;2022-07-09T04:46:20;2.17;;;1.47;;
65489;SDS011;52107;49.742;8.628;2022-07-09T04:48:51;2.35;;;1.48;;
65489;SDS011;52107;49.742;8.628;2022-07-09T04:51:17;2.33;;;1.37;;
65489;SDS011;52107;49.742;8.628;2022-07-09T04:53:42;2.20;;;1.33;;
65489;SDS011;52107;49.742;8.628;2022-07-09T04:56:07;2.63;;;1.40;;
65489;SDS011;52107;49.742;8.628;2022-07-09T04:58:32;3.03;;;1.23;;
65489;SDS011;52107;49.742;8.628;2022-07-09T05:00:58;2.10;;;1.27;;
65489;SDS011;52107;49.742;8.628;2022-07-09T05:03:23;2.73;;;1.27;;
65489;SDS011;52107;49.742;8.628;2022-07-09T05:05:50;2.33;;;1.43;;
65489;SDS011;52107;49.742;8.628;2022-07-09T05:08:16;2.10;;;1.40;;
65489;SDS011;52107;49.742;8.628;2022-07-09T05:10:41;2.28;;;1.25;;
65489;SDS011;52107;49.742;8.628;2022-07-09T05:13:06;3.70;;;1.40;;
65489;SDS011;52107;49.742;8.628;2022-07-09T05:18:35;2.88;;;1.27;;
65489;SDS011;52107;49.742;8.628;2022-07-09T05:21:01;3.07;;;1.37;;
65489;SDS011;52107;49.742;8.628;2022-07-09T05:23:26;2.10;;;1.40;;
65489;SDS011;52107;49.742;8.628;2022-07-09T05:25:51;2.58;;;1.13;;
65489;SDS011;52107;49.742;8.628;2022-07-09T05:28:17;2.67;;;1.50;;
65489;SDS011;52107;49.742;8.628;2022-07-09T05:30:42;2.55;;;1.35;;
65489;SDS011;52107;49.742;8.628;2022-07-09T05:33:07;3.22;;;1.60;;
65489;SDS011;52107;49.742;8.628;2022-07-09T05:35:33;2.53;;;1.60;;
65489;SDS011;52107;49.742;8.628;2022-07-09T05:37:58;3.67;;;1.58;;
65489;SDS011;52107;49.742;8.628;2022-07-09T05:40:23;3.27;;;1.87;;
65489;SDS011;52107;49.742;8.628;2022-07-09T05:42:48;3.83;;;1.70;;
65489;SDS011;52107;49.742;8.628;2022-07-09T05:45:13;4.05;;;1.90;;
65489;SDS011;52107;49.742;8.628;2022-07-09T05:47:38;2.20;;;1.53;;
65489;SDS011;52107;49.742;8.628;2022-07-09T05:50:04;2.87;;;1.60;;
65489;SDS011;52107;49.742;8.628;2022-07-09T05:52:29;3.27;;;1.80;;
65489;SDS011;52107;49.742;8.628;2022-07-09T05:54:54;4.63;;;1.70;;
65489;SDS011;52107;49.742;8.628;2022-07-09T05:57:20;3.00;;;1.50;;
65489;SDS011;52107;49.742;8.628;2022-07-09T05:59:45;2.43;;;1.50;;
65489;SDS011;52107;49.742;8.628;2022-07-09T06:02:10;2.53;;;1.60;;
65489;SDS011;52107;49.742;8.628;2022-07-09T06:04:35;2.80;;;1.30;;
65489;SDS011;52107;49.742;8.628;2022-07-09T06:07:00;2.45;;;1.52;;
65489;SDS011;52107;49.742;8.628;2022-07-09T06:09:25;2.28;;;1.70;;
65489;SDS011;52107;49.742;8.628;2022-07-09T06:11:51;2.97;;;1.63;;
65489;SDS011;52107;49.742;8.628;2022-07-09T06:14:17;2.00;;;1.40;;
65489;SDS011;52107;49.742;8.628;2022-07-09T06:16:44;3.93;;;1.50;;
65489;SDS011;52107;49.742;8.628;2022-07-09T06:19:15;2.40;;;1.30;;
65489;SDS011;52107;49.742;8.628;2022-07-09T06:21:40;1.98;;;1.25;;
65489;SDS011;52107;49.742;8.628;2022-07-09T06:24:05;5.33;;;1.80;;
65489;SDS011;52107;49.742;8.628;2022-07-09T06:26:31;3.03;;;1.77;;
65489;SDS011;52107;49.742;8.628;2022-07-09T06:28:56;3.28;;;1.88;;
65489;SDS011;52107;49.742;8.628;2022-07-09T06:31:21;2.63;;;1.30;;
65489;SDS011;52107;49.742;8.628;2022-07-09T06:33:48;2.20;;;1.33;;
65489;SDS011;52107;49.742;8.628;2022-07-09T06:36:14;3.65;;;1.80;;
65489;SDS011;52107;49.742;8.628;2022-07-09T06:38:39;3.10;;;1.52;;
65489;SDS011;52107;49.742;8.628;2022-07-09T06:41:23;2.67;;;1.87;;
65489;SDS011;52107;49.742;8.628;2022-07-09T06:43:48;2.25;;;1.52;;
65489;SDS011;52107;49.742;8.628;2022-07-09T06:46:13;3.17;;;1.85;;
65489;SDS011;52107;49.742;8.628;2022-07-09T06:48:38;3.20;;;1.55;;
65489;SDS011;52107;49.742;8.628;2022-07-09T06:51:04;2.87;;;2.17;;
65489;SDS011;52107;49.742;8.628;2022-07-09T06:53:29;3.47;;;1.98;;
65489;SDS011;52107;49.742;8.628;2022-07-09T06:55:54;2.65;;;1.63;;
65489;SDS011;52107;49.742;8.628;2022-07-09T06:58:19;2.47;;;1.50;;
65489;SDS011;52107;49.742;8.628;2022-07-09T07:00:48;4.40;;;1.98;;
65489;SDS011;52107;49.742;8.628;2022-07-09T07:03:13;3.05;;;1.50;;
65489;SDS011;52107;49.742;8.628;2022-07-09T07:05:39;5.95;;;2.17;;
65489;SDS011;52107;49.742;8.628;2022-07-09T07:08:04;5.38;;;1.90;;
65489;SDS011;52107;49.742;8.628;2022-07-09T07:10:30;4.50;;;2.10;;
65489;SDS011;52107;49.742;8.628;2022-07-09T07:12:55;2.80;;;2.17;;
65489;SDS011;52107;49.742;8.628;2022-07-09T07:15:20;3.33;;;2.00;;
65489;SDS011;52107;49.742;8.628;2022-07-09T07:17:46;2.93;;;2.10;;
65489;SDS011;52107;49.742;8.628;2022-07-09T07:20:13;3.80;;;2.40;;
65489;SDS011;52107;49.742;8.628;2022-07-09T07:22:38;4.70;;;2.03;;
65489;SDS011;52107;49.742;8.628;2022-07-09T07:25:03;4.70;;;2.40;;
65489;SDS011;52107;49.742;8.628;2022-07-09T07:27:28;4.20;;;2.47;;
65489;SDS011;52107;49.742;8.628;2022-07-09T07:29:54;3.83;;;2.42;;
65489;SDS011;52107;49.742;8.628;2022-07-09T07:32:19;3.72;;;2.70;;
65489;SDS011;52107;49.742;8.628;2022-07-09T07:34:44;4.03;;;2.42;;
65489;SDS011;52107;49.742;8.628;2022-07-09T07:37:09;5.05;;;2.47;;
65489;SDS011;52107;49.742;8.628;2022-07-09T07:39:34;5.40;;;2.80;;
65489;SDS011;52107;49.742;8.628;2022-07-09T07:42:00;3.17;;;2.20;;
65489;SDS011;52107;49.742;8.628;2022-07-09T07:44:30;4.30;;;2.60;;
65489;SDS011;52107;49.742;8.628;2022-07-09T07:46:55;10.07;;;2.78;;
65489;SDS011;52107;49.742;8.628;2022-07-09T07:49:21;10.37;;;2.47;;
65489;SDS011;52107;49.742;8.628;2022-07-09T07:51:46;3.63;;;2.38;;
65489;SDS011;52107;49.742;8.628;2022-07-09T07:54:11;4.60;;;2.50;;
65489;SDS011;52107;49.742;8.628;2022-07-09T07:56:36;4.97;;;3.13;;
65489;SDS011;52107;49.742;8.628;2022-07-09T07:59:03;3.13;;;2.20;;
65489;SDS011;52107;49.742;8.628;2022-07-09T08:01:28;3.23;;;1.83;;
65489;SDS011;52107;49.742;8.628;2022-07-09T08:03:53;4.30;;;2.38;;
65489;SDS011;52107;49.742;8.628;2022-07-09T08:06:38;5.00;;;2.60;;
65489;SDS011;52107;49.742;8.628;2022-07-09T08:09:03;4.75;;;2.67;;
65489;SDS011;52107;49.742;8.628;2022-07-09T08:11:28;4.70;;;2.37;;
65489;SDS011;52107;49.742;8.628;2022-07-09T08:13:55;4.50;;;2.40;;
65489;SDS011;52107;49.742;8.628;2022-07-09T08:16:23;3.38;;;2.53;;
65489;SDS011;52107;49.742;8.628;2022-07-09T08:18:52;3.65;;;2.45;;
65489;SDS011;52107;49.742;8.628;2022-07-09T08:21:19;4.03;;;2.50;;
65489;SDS011;52107;49.742;8.628;2022-07-09T08:23:44;6.28;;;2.80;;
65489;SDS011;52107;49.742;8.628;2022-07-09T08:26:35;5.07;;;2.60;;
65489;SDS011;52107;49.742;8.628;2022-07-09T08:29:00;4.80;;;2.40;;
65489;SDS011;52107;49.742;8.628;2022-07-09T08:31:26;3.83;;;2.63;;
65489;SDS011;52107;49.742;8.628;2022-07-09T08:33:51;10.05;;;3.30;;
65489;SDS011;52107;49.742;8.628;2022-07-09T08:36:18;6.23;;;2.70;;
65489;SDS011;52107;49.742;8.628;2022-07-09T08:38:44;3.33;;;2.40;;
65489;SDS011;52107;49.742;8.628;2022-07-09T08:41:09;3.50;;;2.50;;
65489;SDS011;52107;49.742;8.628;2022-07-09T08:43:39;5.77;;;2.93;;
65489;SDS011;52107;49.742;8.628;2022-07-09T08:46:06;4.80;;;2.90;;
65489;SDS011;52107;49.742;8.628;2022-07-09T08:48:35;4.80;;;2.37;;
65489;SDS011;52107;49.742;8.628;2022-07-09T08:51:05;4.10;;;2.30;;
65489;SDS011;52107;49.742;8.628;2022-07-09T08:53:31;4.18;;;2.03;;
65489;SDS011;52107;49.742;8.628;2022-07-09T08:55:56;5.60;;;2.67;;
65489;SDS011;52107;49.742;8.628;2022-07-09T08:58:22;4.47;;;2.50;;
65489;SDS011;52107;49.742;8.628;2022-07-09T09:00:50;5.17;;;2.60;;
65489;SDS011;52107;49.742;8.628;2022-07-09T09:03:17;3.45;;;2.22;;
65489;SDS011;52107;49.742;8.628;2022-07-09T09:05:44;3.05;;;2.10;;
65489;SDS011;52107;49.742;8.628;2022-07-09T09:08:21;4.13;;;2.43;;
65489;SDS011;52107;49.742;8.628;2022-07-09T09:10:50;4.07;;;2.75;;
65489;SDS011;52107;49.742;8.628;2022-07-09T09:13:16;7.70;;;2.70;;
65489;SDS011;52107;49.742;8.628;2022-07-09T09:15:42;5.32;;;3.20;;
65489;SDS011;52107;49.742;8.628;2022-07-09T09:18:07;4.97;;;2.90;;
65489;SDS011;52107;49.742;8.628;2022-07-09T09:20:33;4.68;;;2.47;;
65489;SDS011;52107;49.742;8.628;2022-07-09T09:22:59;4.73;;;2.30;;
65489;SDS011;52107;49.742;8.628;2022-07-09T09:25:29;6.32;;;2.53;;
65489;SDS011;52107;49.742;8.628;2022-07-09T09:27:55;5.23;;;2.27;;
65489;SDS011;52107;49.742;8.628;2022-07-09T09:30:22;4.03;;;2.00;;
65489;SDS011;52107;49.742;8.628;2022-07-09T09:33:00;3.47;;;2.00;;
65489;SDS011;52107;49.742;8.628;2022-07-09T09:35:26;3.97;;;2.47;;
65489;SDS011;52107;49.742;8.628;2022-07-09T09:37:52;3.10;;;1.92;;
65489;SDS011;52107;49.742;8.628;2022-07-09T09:40:18;4.70;;;2.40;;
65489;SDS011;52107;49.742;8.628;2022-07-09T09:42:44;7.53;;;2.47;;
65489;SDS011;52107;49.742;8.628;2022-07-09T09:45:10;6.55;;;2.40;;
65489;SDS011;52107;49.742;8.628;2022-07-09T09:47:36;3.30;;;2.47;;
65489;SDS011;52107;49.742;8.628;2022-07-09T09:50:01;3.00;;;2.37;;
65489;SDS011;52107;49.742;8.628;2022-07-09T09:52:27;4.75;;;2.22;;
65489;SDS011;52107;49.742;8.628;2022-07-09T09:54:53;3.07;;;2.30;;
65489;SDS011;52107;49.742;8.628;2022-07-09T09:57:21;4.03;;;2.95;;
65489;SDS011;52107;49.742;8.628;2022-07-09T09:59:50;5.53;;;2.47;;
65489;SDS011;52107;49.742;8.628;2022-07-09T10:02:17;3.60;;;2.57;;
65489;SDS011;52107;49.742;8.628;2022-07-09T10:04:44;5.20;;;2.78;;
65489;SDS011;52107;49.742;8.628;2022-07-09T10:07:13;3.30;;;2.27;;
65489;SDS011;52107;49.742;8.628;2022-07-09T10:09:52;3.30;;;2.28;;
65489;SDS011;52107;49.742;8.628;2022-07-09T10:12:24;3.38;;;2.17;;
65489;SDS011;52107;49.742;8.628;2022-07-09T10:14:50;5.60;;;2.10;;
65489;SDS011;52107;49.742;8.628;2022-07-09T10:17:18;4.15;;;1.80;;
65489;SDS011;52107;49.742;8.628;2022-07-09T10:19:50;3.60;;;2.07;;
65489;SDS011;52107;49.742;8.628;2022-07-09T10:22:16;3.72;;;1.95;;
65489;SDS011;52107;49.742;8.628;2022-07-09T10:24:44;6.20;;;2.88;;
65489;SDS011;52107;49.742;8.628;2022-07-09T10:27:10;4.65;;;2.30;;
65489;SDS011;52107;49.742;8.628;2022-07-09T10:29:36;2.45;;;1.83;;
65489;SDS011;52107;49.742;8.628;2022-07-09T10:32:01;2.60;;;1.90;;
65489;SDS011;52107;49.742;8.628;2022-07-09T10:34:37;5.40;;;2.30;;
65489;SDS011;52107;49.742;8.628;2022-07-09T10:37:04;5.33;;;2.30;;
65489;SDS011;52107;49.742;8.628;2022-07-09T10:39:30;3.55;;;2.33;;
65489;SDS011;52107;49.742;8.628;2022-07-09T10:42:05;3.60;;;2.25;;
65489;SDS011;52107;49.742;8.628;2022-07-09T10:44:37;3.50;;;2.97;;
65489;SDS011;52107;49.742;8.628;2022-07-09T10:47:03;3.03;;;2.20;;
65489;SDS011;52107;49.742;8.628;2022-07-09T10:49:29;4.18;;;2.13;;
65489;SDS011;52107;49.742;8.628;2022-07-09T10:51:55;4.97;;;2.17;;
65489;SDS011;52107;49.742;8.628;2022-07-09T10:54:20;3.63;;;2.10;;
65489;SDS011;52107;49.742;8.628;2022-07-09T10:56:46;2.60;;;1.83;;
65489;SDS011;52107;49.742;8.628;2022-07-09T10:59:15;3.07;;;1.90;;
65489;SDS011;52107;49.742;8.628;2022-07-09T11:01:40;2.78;;;2.03;;
65489;SDS011;52107;49.742;8.628;2022-07-09T11:04:05;2.50;;;1.60;;
65489;SDS011;52107;49.742;8.628;2022-07-09T11:06:31;4.10;;;1.85;;
65489;SDS011;52107;49.742;8.628;2022-07-09T11:08:56;2.57;;;1.67;;
65489;SDS011;52107;49.742;8.628;2022-07-09T11:11:22;4.17;;;2.20;;
65489;SDS011;52107;49.742;8.628;2022-07-09T11:13:53;2.60;;;1.73;;
65489;SDS011;52107;49.742;8.628;2022-07-09T11:16:30;2.33;;;1.70;;
65489;SDS011;52107;49.742;8.628;2022-07-09T11:18:59;3.75;;;1.80;;
65489;SDS011;52107;49.742;8.628;2022-07-09T11:21:24;3.77;;;1.80;;
65489;SDS011;52107;49.742;8.628;2022-07-09T11:23:50;2.92;;;2.05;;
65489;SDS011;52107;49.742;8.628;2022-07-09T11:26:16;2.40;;;1.50;;
65489;SDS011;52107;49.742;8.628;2022-07-09T11:28:42;3.08;;;2.30;;
65489;SDS011;52107;49.742;8.628;2022-07-09T11:33:58;3.58;;;1.58;;
65489;SDS011;52107;49.742;8.628;2022-07-09T11:36:39;2.63;;;1.67;;
65489;SDS011;52107;49.742;8.628;2022-07-09T11:39:04;2.27;;;1.40;;
65489;SDS011;52107;49.742;8.628;2022-07-09T11:41:39;2.80;;;1.67;;
65489;SDS011;52107;49.742;8.628;2022-07-09T11:44:04;2.42;;;1.67;;
65489;SDS011;52107;49.742;8.628;2022-07-09T11:46:29;2.30;;;1.30;;
65489;SDS011;52107;49.742;8.628;2022-07-09T11:48:54;2.80;;;1.50;;
65489;SDS011;52107;49.742;8.628;2022-07-09T11:51:32;2.30;;;1.50;;
65489;SDS011;52107;49.742;8.628;2022-07-09T11:53:58;2.77;;;1.30;;
65489;SDS011;52107;49.742;8.628;2022-07-09T11:56:23;3.38;;;1.50;;
65489;SDS011;52107;49.742;8.628;2022-07-09T11:58:52;2.33;;;1.30;;
65489;SDS011;52107;49.742;8.628;2022-07-09T12:01:27;3.97;;;1.43;;
65489;SDS011;52107;49.742;8.628;2022-07-09T12:03:52;2.00;;;1.10;;
65489;SDS011;52107;49.742;8.628;2022-07-09T12:06:19;2.93;;;1.33;;
65489;SDS011;52107;49.742;8.628;2022-07-09T12:08:44;3.38;;;1.45;;
65489;SDS011;52107;49.742;8.628;2022-07-09T12:11:10;2.20;;;1.20;;
65489;SDS011;52107;49.742;8.628;2022-07-09T12:13:35;2.00;;;1.20;;
65489;SDS011;52107;49.742;8.628;2022-07-09T12:16:00;2.30;;;1.50;;
65489;SDS011;52107;49.742;8.628;2022-07-09T12:18:25;2.50;;;1.17;;
65489;SDS011;52107;49.742;8.628;2022-07-09T12:20:50;2.37;;;1.23;;
65489;SDS011;52107;49.742;8.628;2022-07-09T12:23:15;2.53;;;1.37;;
65489;SDS011;52107;49.742;8.628;2022-07-09T12:25:41;2.80;;;1.40;;
65489;SDS011;52107;49.742;8.628;2022-07-09T12:28:06;2.13;;;1.40;;
65489;SDS011;52107;49.742;8.628;2022-07-09T12:30:31;1.93;;;1.10;;
65489;SDS011;52107;49.742;8.628;2022-07-09T12:32:56;2.10;;;1.23;;
65489;SDS011;52107;49.742;8.628;2022-07-09T12:35:27;2.10;;;1.07;;
65489;SDS011;52107;49.742;8.628;2022-07-09T12:37:52;2.70;;;1.30;;
65489;SDS011;52107;49.742;8.628;2022-07-09T12:40:22;3.03;;;1.27;;
65489;SDS011;52107;49.742;8.628;2022-07-09T12:42:47;1.80;;;1.00;;
65489;SDS011;52107;49.742;8.628;2022-07-09T12:45:15;2.42;;;1.55;;
65489;SDS011;52107;49.742;8.628;2022-07-09T12:47:40;2.28;;;1.40;;
65489;SDS011;52107;49.742;8.628;2022-07-09T12:50:06;2.30;;;1.40;;
65489;SDS011;52107;49.742;8.628;2022-07-09T12:52:31;2.20;;;1.30;;
65489;SDS011;52107;49.742;8.628;2022-07-09T12:54:58;2.95;;;1.40;;
65489;SDS011;52107;49.742;8.628;2022-07-09T12:57:23;3.07;;;1.43;;
65489;SDS011;52107;49.742;8.628;2022-07-09T12:59:49;2.70;;;2.22;;
65489;SDS011;52107;49.742;8.628;2022-07-09T13:02:15;2.38;;;1.52;;
65489;SDS011;52107;49.742;8.628;2022-07-09T13:04:40;2.70;;;1.67;;
65489;SDS011;52107;49.742;8.628;2022-07-09T13:07:05;2.38;;;1.48;;
65489;SDS011;52107;49.742;8.628;2022-07-09T13:09:30;2.20;;;1.50;;
65489;SDS011;52107;49.742;8.628;2022-07-09T13:11:56;2.20;;;1.50;;
65489;SDS011;52107;49.742;8.628;2022-07-09T13:14:21;3.07;;;1.60;;
65489;SDS011;52107;49.742;8.628;2022-07-09T13:16:46;2.83;;;1.60;;
65489;SDS011;52107;49.742;8.628;2022-07-09T13:19:11;2.50;;;1.40;;
65489;SDS011;52107;49.742;8.628;2022-07-09T13:21:36;3.13;;;1.40;;
65489;SDS011;52107;49.742;8.628;2022-07-09T13:24:02;2.00;;;1.50;;
65489;SDS011;52107;49.742;8.628;2022-07-09T13:26:27;2.30;;;1.60;;
65489;SDS011;52107;49.742;8.628;2022-07-09T13:28:53;2.77;;;1.30;;
65489;SDS011;52107;49.742;8.628;2022-07-09T13:31:18;2.10;;;1.43;;
65489;SDS011;52107;49.742;8.628;2022-07-09T13:33:46;2.10;;;1.30;;
65489;SDS011;52107;49.742;8.628;2022-07-09T13:36:11;2.00;;;1.40;;
65489;SDS011;52107;49.742;8.628;2022-07-09T13:38:37;2.40;;;1.50;;
65489;SDS011;52107;49.742;8.628;2022-07-09T13:41:02;2.50;;;1.73;;
65489;SDS011;52107;49.742;8.628;2022-07-09T13:43:27;2.00;;;1.30;;
65489;SDS011;52107;49.742;8.628;2022-07-09T13:45:54;2.50;;;1.50;;
65489;SDS011;52107;49.742;8.628;2022-07-09T13:48:20;2.28;;;1.60;;
65489;SDS011;52107;49.742;8.628;2022-07-09T13:50:45;2.33;;;1.52;;
65489;SDS011;52107;49.742;8.628;2022-07-09T13:53:10;2.50;;;1.60;;
65489;SDS011;52107;49.742;8.628;2022-07-09T13:55:36;2.43;;;1.47;;
65489;SDS011;52107;49.742;8.628;2022-07-09T13:58:01;2.30;;;1.63;;
65489;SDS011;52107;49.742;8.628;2022-07-09T14:00:26;2.27;;;1.50;;
65489;SDS011;52107;49.742;8.628;2022-07-09T14:02:51;2.30;;;1.77;;
65489;SDS011;52107;49.742;8.628;2022-07-09T14:05:16;2.37;;;1.60;;
65489;SDS011;52107;49.742;8.628;2022-07-09T14:07:42;4.07;;;1.75;;
65489;SDS011;52107;49.742;8.628;2022-07-09T14:10:07;2.17;;;1.50;;
65489;SDS011;52107;49.742;8.628;2022-07-09T14:12:32;3.67;;;2.00;;
65489;SDS011;52107;49.742;8.628;2022-07-09T14:14:57;2.88;;;2.05;;
65489;SDS011;52107;49.742;8.628;2022-07-09T14:17:24;3.70;;;2.23;;
65489;SDS011;52107;49.742;8.628;2022-07-09T14:19:50;2.72;;;1.70;;
65489;SDS011;52107;49.742;8.628;2022-07-09T14:22:15;5.03;;;1.70;;
65489;SDS011;52107;49.742;8.628;2022-07-09T14:24:40;3.03;;;1.53;;
65489;SDS011;52107;49.742;8.628;2022-07-09T14:27:05;2.20;;;1.38;;
65489;SDS011;52107;49.742;8.628;2022-07-09T14:29:31;2.37;;;1.60;;
65489;SDS011;52107;49.742;8.628;2022-07-09T14:31:56;2.40;;;1.45;;
65489;SDS011;52107;49.742;8.628;2022-07-09T14:34:21;2.20;;;1.50;;
65489;SDS011;52107;49.742;8.628;2022-07-09T14:36:48;3.60;;;2.10;;
65489;SDS011;52107;49.742;8.628;2022-07-09T14:39:13;2.20;;;1.75;;
65489;SDS011;52107;49.742;8.628;2022-07-09T14:41:39;2.27;;;1.70;;
65489;SDS011;52107;49.742;8.628;2022-07-09T14:44:04;2.40;;;1.73;;
65489;SDS011;52107;49.742;8.628;2022-07-09T14:46:29;2.95;;;1.40;;